Time;durP1;ratioP1;P1;durP2;ratioP2;P2;SDS_P1;SDS_P2;PMS_P1;PMS_P2;Temp;Humidity;BMP_temperature;BMP_pressure;BME280_temperature;BME280_humidity;BME280_pressure;Samples;Min_cycle;Max_cycle;Signal;HPM_P1;HPM_P2
2021/05/13 00:01:12;;;;;;;6.70;4.30;;;9.90;99.90;;;;;;5053243;28;20960;-52
2021/05/13 00:03:40;;;;;;;5.00;4.53;;;9.90;99.90;;;;;;5048781;28;20491;-54
2021/05/13 00:06:06;;;;;;;6.97;5.10;;;9.90;99.90;;;;;;5053669;28;20463;-54
2021/05/13 00:08:33;;;;;;;6.53;5.33;;;9.90;99.90;;;;;;5049516;28;20980;-54
2021/05/13 00:11:03;;;;;;;6.33;4.97;;;9.90;99.90;;;;;;5049102;28;20448;-55
2021/05/13 00:13:32;;;;;;;9.00;5.10;;;9.90;99.90;;;;;;5048886;28;20554;-54
2021/05/13 00:15:58;;;;;;;7.40;4.90;;;9.90;99.90;;;;;;5041664;28;20451;-54
2021/05/13 00:18:25;;;;;;;6.50;5.07;;;9.90;99.90;;;;;;5050678;28;20484;-55
2021/05/13 00:20:53;;;;;;;6.40;4.73;;;9.90;99.90;;;;;;5047840;28;20505;-55
2021/05/13 00:23:20;;;;;;;7.27;5.20;;;10.00;99.90;;;;;;5048266;28;20491;-55
2021/05/13 00:25:49;;;;;;;10.60;5.87;;;10.00;99.90;;;;;;5052455;28;20491;-55
2021/05/13 00:28:16;;;;;;;6.53;5.57;;;9.90;99.90;;;;;;5051899;28;20463;-55
2021/05/13 00:30:42;;;;;;;7.73;5.50;;;9.90;99.90;;;;;;5044167;28;20993;-55
2021/05/13 00:33:09;;;;;;;6.90;5.43;;;10.00;99.90;;;;;;5049288;28;21046;-55
2021/05/13 00:35:35;;;;;;;7.70;5.80;;;10.00;99.90;;;;;;5033399;28;20440;-55
2021/05/13 00:38:03;;;;;;;7.13;5.93;;;10.00;99.90;;;;;;5052161;28;20462;-55
2021/05/13 00:40:30;;;;;;;7.90;6.40;;;9.80;99.90;;;;;;5041876;28;20460;-55
2021/05/13 00:42:56;;;;;;;6.90;5.40;;;9.80;99.90;;;;;;5044698;28;20509;-55
2021/05/13 00:45:23;;;;;;;7.03;6.17;;;9.90;99.90;;;;;;5044281;28;20836;-55
2021/05/13 00:48:02;;;;;;;8.47;6.13;;;9.90;99.90;;;;;;5052004;28;20552;-55
2021/05/13 00:50:30;;;;;;;7.20;5.97;;;9.90;99.90;;;;;;5047268;28;20853;-55
2021/05/13 00:52:56;;;;;;;9.10;6.60;;;9.90;99.90;;;;;;5052290;28;20886;-55
2021/05/13 00:55:24;;;;;;;7.80;5.60;;;9.90;99.90;;;;;;5043852;28;20464;-55
2021/05/13 00:57:53;;;;;;;8.13;6.20;;;9.90;99.90;;;;;;5051936;28;20467;-55
2021/05/13 01:00:38;;;;;;;7.40;6.50;;;9.90;99.90;;;;;;5049974;28;20558;-55
2021/05/13 01:03:05;;;;;;;6.43;5.73;;;9.80;99.90;;;;;;5047189;28;20483;-55
2021/05/13 01:05:33;;;;;;;8.80;6.50;;;9.70;99.90;;;;;;5037208;28;20463;-55
2021/05/13 01:08:01;;;;;;;7.57;5.97;;;9.60;99.90;;;;;;5051525;28;20482;-55
2021/05/13 01:10:29;;;;;;;7.13;6.40;;;9.60;99.90;;;;;;5044441;28;20821;-55
2021/05/13 01:12:59;;;;;;;7.23;5.40;;;9.50;99.90;;;;;;5042740;28;20486;-55
2021/05/13 01:15:28;;;;;;;9.00;5.57;;;9.50;99.90;;;;;;5041374;28;20857;-54
2021/05/13 01:18:00;;;;;;;12.73;6.70;;;9.40;99.90;;;;;;5043832;28;20521;-55
2021/05/13 01:20:28;;;;;;;8.07;5.23;;;9.40;99.90;;;;;;5050762;28;20579;-55
2021/05/13 01:22:56;;;;;;;6.13;4.63;;;9.30;99.90;;;;;;5073345;22;20881;-54
2021/05/13 01:25:24;;;;;;;5.47;4.73;;;9.30;99.90;;;;;;5038769;28;20459;-55
2021/05/13 01:27:55;;;;;;;5.80;4.60;;;9.20;99.90;;;;;;5050054;28;20467;-54
2021/05/13 01:30:21;;;;;;;5.70;4.43;;;9.30;99.90;;;;;;5043610;28;20513;-54
2021/05/13 01:32:48;;;;;;;5.77;4.07;;;9.30;99.90;;;;;;5044718;28;21051;-54
2021/05/13 01:35:14;;;;;;;5.00;4.33;;;9.20;99.90;;;;;;5043114;28;20468;-55
2021/05/13 01:37:41;;;;;;;8.97;4.70;;;9.20;99.90;;;;;;5050420;28;20537;-55
2021/05/13 01:40:10;;;;;;;4.90;4.20;;;9.30;99.90;;;;;;5043568;28;20515;-55
2021/05/13 01:42:36;;;;;;;6.47;4.20;;;9.30;99.90;;;;;;5045508;28;20859;-55
2021/05/13 01:45:03;;;;;;;5.60;4.30;;;9.20;99.90;;;;;;5051462;28;20475;-55
2021/05/13 01:47:35;;;;;;;6.03;4.10;;;9.20;99.90;;;;;;5051971;28;20443;-54
2021/05/13 01:50:01;;;;;;;8.70;4.20;;;9.20;99.90;;;;;;5043323;28;20464;-55
2021/05/13 01:52:28;;;;;;;5.90;4.40;;;9.20;99.90;;;;;;5048273;28;20467;-55
2021/05/13 01:54:54;;;;;;;5.80;4.20;;;9.30;99.90;;;;;;5051187;28;20460;-54
2021/05/13 01:57:22;;;;;;;6.60;4.30;;;9.30;99.90;;;;;;5052376;28;20462;-54
2021/05/13 01:59:48;;;;;;;4.93;3.87;;;9.30;99.90;;;;;;5049693;28;20470;-55
2021/05/13 02:02:15;;;;;;;7.60;4.30;;;9.30;99.90;;;;;;5046466;28;20480;-55
2021/05/13 02:04:42;;;;;;;4.93;3.90;;;9.30;99.90;;;;;;5050257;28;20846;-55
2021/05/13 02:07:08;;;;;;;5.70;4.40;;;9.30;99.90;;;;;;5050875;28;21107;-54
2021/05/13 02:09:36;;;;;;;5.53;4.60;;;9.40;99.90;;;;;;5037113;28;20456;-55
2021/05/13 02:12:04;;;;;;;4.90;3.90;;;9.50;99.90;;;;;;5048739;28;20467;-58
2021/05/13 02:14:35;;;;;;;5.33;3.97;;;9.40;99.90;;;;;;5048924;28;20613;-55
2021/05/13 02:17:01;;;;;;;5.13;3.77;;;9.40;99.90;;;;;;5052141;28;20440;-56
2021/05/13 02:19:28;;;;;;;4.47;3.97;;;9.30;99.90;;;;;;5041075;28;20525;-56
2021/05/13 02:21:54;;;;;;;7.10;4.50;;;9.20;99.90;;;;;;5045681;28;20454;-56
2021/05/13 02:24:21;;;;;;;7.47;4.07;;;9.10;99.90;;;;;;5044733;28;21039;-56
2021/05/13 02:26:47;;;;;;;5.27;4.03;;;9.20;99.90;;;;;;5051104;28;20468;-56
2021/05/13 02:29:14;;;;;;;4.90;3.80;;;9.20;99.90;;;;;;5048385;28;20464;-55
2021/05/13 02:31:41;;;;;;;7.30;4.57;;;9.10;99.90;;;;;;5039950;28;20974;-55
2021/05/13 02:34:08;;;;;;;6.77;3.53;;;9.10;99.90;;;;;;5047058;28;20479;-56
2021/05/13 02:36:34;;;;;;;5.90;4.73;;;9.30;99.90;;;;;;5042449;28;20463;-55
2021/05/13 02:39:02;;;;;;;5.23;4.50;;;9.30;99.90;;;;;;5050721;28;20471;-55
2021/05/13 02:41:28;;;;;;;8.73;5.23;;;9.30;99.90;;;;;;5042796;28;20985;-56
2021/05/13 02:43:55;;;;;;;5.20;4.50;;;9.30;99.90;;;;;;5051089;28;20487;-55
2021/05/13 02:46:21;;;;;;;7.97;4.80;;;9.30;99.90;;;;;;5050846;28;20468;-56
2021/05/13 02:48:48;;;;;;;7.07;5.43;;;9.30;99.90;;;;;;5047964;28;20468;-56
2021/05/13 02:51:15;;;;;;;5.33;4.47;;;9.30;99.90;;;;;;5051636;28;20443;-55
2021/05/13 02:53:41;;;;;;;5.53;4.70;;;9.30;99.90;;;;;;5046266;28;20487;-55
2021/05/13 02:56:08;;;;;;;6.90;5.40;;;9.30;99.90;;;;;;5047198;28;20455;-56
2021/05/13 02:58:34;;;;;;;9.23;5.80;;;9.30;99.90;;;;;;5046844;28;20468;-55
2021/05/13 03:01:11;;;;;;;7.93;6.10;;;9.30;99.90;;;;;;5047005;28;20444;-56
2021/05/13 03:03:37;;;;;;;13.73;6.60;;;9.30;99.90;;;;;;5040377;28;20492;-56
2021/05/13 03:06:05;;;;;;;7.80;6.67;;;9.30;99.90;;;;;;5037050;28;20456;-56
2021/05/13 03:08:31;;;;;;;10.67;6.30;;;9.30;99.90;;;;;;5045409;28;20897;-56
2021/05/13 03:10:58;;;;;;;16.33;6.70;;;9.30;99.90;;;;;;5046892;28;20452;-55
2021/05/13 03:13:26;;;;;;;7.50;6.13;;;9.40;99.90;;;;;;5050022;28;20486;-55
2021/05/13 03:15:52;;;;;;;13.50;6.60;;;9.50;99.90;;;;;;5051473;28;20941;-55
2021/05/13 03:18:21;;;;;;;7.40;5.93;;;9.60;99.90;;;;;;5048435;28;20464;-55
2021/05/13 03:20:51;;;;;;;11.30;6.60;;;9.60;99.90;;;;;;5038809;28;20447;-55
2021/05/13 03:23:25;;;;;;;9.53;6.57;;;9.30;99.90;;;;;;5046395;28;20532;-56
2021/05/13 03:25:58;;;;;;;5.67;5.00;;;9.40;99.90;;;;;;5040222;28;20547;-55
2021/05/13 03:28:25;;;;;;;6.33;5.70;;;9.40;99.90;;;;;;5045045;28;20471;-55
2021/05/13 03:30:51;;;;;;;7.00;5.40;;;9.50;99.90;;;;;;5044605;28;20952;-55
2021/05/13 03:33:18;;;;;;;5.57;4.73;;;9.50;99.90;;;;;;5052701;28;20552;-55
2021/05/13 03:35:45;;;;;;;6.83;5.23;;;9.50;99.90;;;;;;5048244;28;20838;-55
2021/05/13 03:38:12;;;;;;;7.60;5.40;;;9.50;99.90;;;;;;5054300;28;20845;-55
2021/05/13 03:40:40;;;;;;;6.50;5.10;;;9.60;99.90;;;;;;5054369;28;20460;-56
2021/05/13 03:43:08;;;;;;;7.07;5.20;;;9.60;99.90;;;;;;5054529;28;20483;-55
2021/05/13 03:45:35;;;;;;;6.07;5.23;;;9.60;99.90;;;;;;5046459;28;20467;-56
2021/05/13 03:48:02;;;;;;;6.80;5.47;;;9.60;99.90;;;;;;5046465;28;20981;-55
2021/05/13 03:50:30;;;;;;;9.03;5.40;;;9.50;99.90;;;;;;5049968;28;20469;-55
2021/05/13 03:52:56;;;;;;;7.77;5.80;;;9.40;99.90;;;;;;5046617;28;20486;-56
2021/05/13 03:55:23;;;;;;;14.20;6.70;;;9.40;99.90;;;;;;5047818;28;20466;-55
2021/05/13 03:57:55;;;;;;;7.83;5.90;;;9.10;99.90;;;;;;5053516;28;20499;-55
2021/05/13 04:00:28;;;;;;;9.20;6.43;;;9.00;99.90;;;;;;5047175;28;20455;-55
2021/05/13 04:02:54;;;;;;;8.67;6.20;;;9.10;99.90;;;;;;5045356;28;20533;-55
2021/05/13 04:05:21;;;;;;;9.30;6.33;;;9.20;99.90;;;;;;5046767;28;20521;-55
2021/05/13 04:07:48;;;;;;;8.23;6.13;;;9.30;99.90;;;;;;5046825;28;20464;-55
2021/05/13 04:10:15;;;;;;;8.40;6.77;;;9.40;99.90;;;;;;5045919;28;20960;-55
2021/05/13 04:12:43;;;;;;;9.20;6.23;;;9.40;99.90;;;;;;5046675;28;20514;-55
2021/05/13 04:15:12;;;;;;;7.33;5.80;;;9.40;99.90;;;;;;5044991;28;20551;-55
2021/05/13 04:17:39;;;;;;;7.73;6.30;;;9.40;99.90;;;;;;5046107;28;20470;-55
2021/05/13 04:20:07;;;;;;;7.53;5.77;;;9.40;99.90;;;;;;5054972;28;20895;-55
2021/05/13 04:22:35;;;;;;;10.13;7.10;;;9.40;99.90;;;;;;5053650;28;20491;-56
2021/05/13 04:25:01;;;;;;;8.20;7.10;;;9.40;99.90;;;;;;5047205;28;21021;-55
2021/05/13 04:27:28;;;;;;;8.60;6.67;;;9.30;99.90;;;;;;5046808;28;20463;-55
2021/05/13 04:29:54;;;;;;;15.27;7.57;;;9.30;99.90;;;;;;5048837;28;20493;-55
2021/05/13 04:32:22;;;;;;;9.43;6.90;;;9.40;99.90;;;;;;5045012;28;21016;-55
2021/05/13 04:34:48;;;;;;;8.30;6.80;;;9.40;99.90;;;;;;5046118;28;20462;-55
2021/05/13 04:37:15;;;;;;;8.30;6.20;;;9.40;99.90;;;;;;5051338;28;20467;-56
2021/05/13 04:39:43;;;;;;;8.20;5.97;;;9.40;99.90;;;;;;5052516;28;20467;-55
2021/05/13 04:42:09;;;;;;;8.57;6.07;;;9.40;99.90;;;;;;5048045;28;21659;-55
2021/05/13 04:44:37;;;;;;;6.87;5.33;;;9.40;99.90;;;;;;5048883;28;20894;-55
2021/05/13 04:47:20;;;;;;;7.27;5.70;;;9.50;99.90;;;;;;5045529;28;20462;-55
2021/05/13 04:49:49;;;;;;;6.70;5.00;;;9.50;99.90;;;;;;5052575;28;20470;-55
2021/05/13 04:52:17;;;;;;;8.87;5.87;;;9.60;99.90;;;;;;5053929;28;20502;-55
2021/05/13 04:54:46;;;;;;;9.80;6.30;;;9.60;99.90;;;;;;5045545;28;20463;-55
2021/05/13 04:57:13;;;;;;;7.90;5.87;;;9.60;99.90;;;;;;5044886;28;20462;-55
2021/05/13 04:59:41;;;;;;;7.20;5.83;;;9.60;99.90;;;;;;5045465;28;20467;-56
2021/05/13 05:02:08;;;;;;;7.17;5.37;;;9.80;99.90;;;;;;5044996;28;20738;-55
2021/05/13 05:04:34;;;;;;;9.97;6.47;;;9.80;99.90;;;;;;5045365;28;20488;-55
2021/05/13 05:07:02;;;;;;;7.23;5.80;;;9.80;99.90;;;;;;5041661;28;20476;-55
2021/05/13 05:09:28;;;;;;;8.30;6.10;;;9.80;99.90;;;;;;5051935;28;20467;-55
2021/05/13 05:11:55;;;;;;;8.00;5.90;;;9.60;99.90;;;;;;5047791;28;20517;-55
2021/05/13 05:14:21;;;;;;;11.70;6.20;;;9.50;99.90;;;;;;5043562;28;20475;-55
2021/05/13 05:16:48;;;;;;;7.33;5.80;;;9.50;99.90;;;;;;5045191;28;20475;-55
2021/05/13 05:19:14;;;;;;;11.03;6.53;;;9.50;99.90;;;;;;5052258;28;20471;-55
2021/05/13 05:21:41;;;;;;;8.10;6.03;;;9.50;99.90;;;;;;5053359;28;20455;-55
2021/05/13 05:24:09;;;;;;;9.40;6.90;;;9.50;99.90;;;;;;5046600;28;20556;-55
2021/05/13 05:26:36;;;;;;;11.37;6.50;;;9.30;99.90;;;;;;5050234;28;20464;-55
2021/05/13 05:29:03;;;;;;;11.63;7.50;;;9.50;99.90;;;;;;5045307;28;20968;-55
2021/05/13 05:31:30;;;;;;;8.67;6.63;;;9.60;99.90;;;;;;5043467;28;20954;-55
2021/05/13 05:33:56;;;;;;;9.00;6.33;;;9.60;99.90;;;;;;5044878;28;20471;-55
2021/05/13 05:36:26;;;;;;;11.07;7.00;;;9.70;99.90;;;;;;5044500;28;20498;-55
2021/05/13 05:38:54;;;;;;;8.47;6.17;;;9.80;99.90;;;;;;5047433;28;20996;-56
2021/05/13 05:41:22;;;;;;;7.20;5.67;;;10.00;99.90;;;;;;5045259;28;20884;-55
2021/05/13 05:43:48;;;;;;;11.10;6.40;;;10.10;99.90;;;;;;5049456;28;20487;-55
2021/05/13 05:46:15;;;;;;;8.80;6.30;;;10.10;99.90;;;;;;5052790;28;20443;-55
2021/05/13 05:48:41;;;;;;;10.30;6.53;;;10.20;99.90;;;;;;5047762;28;20476;-55
2021/05/13 05:51:08;;;;;;;7.83;6.20;;;10.20;99.90;;;;;;5043897;28;20474;-55
2021/05/13 05:53:35;;;;;;;10.13;6.63;;;10.20;99.90;;;;;;5043933;28;21174;-56
2021/05/13 05:56:01;;;;;;;7.83;6.17;;;10.10;99.90;;;;;;5045377;28;20472;-56
2021/05/13 05:58:29;;;;;;;7.20;5.67;;;10.20;99.90;;;;;;5044930;28;20509;-56
2021/05/13 06:00:55;;;;;;;6.77;4.70;;;10.20;99.90;;;;;;5043603;28;20468;-55
2021/05/13 06:03:22;;;;;;;6.30;4.83;;;10.30;99.90;;;;;;5046435;28;20537;-56
2021/05/13 06:05:49;;;;;;;7.30;4.70;;;10.30;99.90;;;;;;5043757;28;20546;-56
2021/05/13 06:08:15;;;;;;;7.90;4.43;;;10.40;99.90;;;;;;5047014;28;20546;-56
2021/05/13 06:10:42;;;;;;;8.87;5.10;;;10.50;99.90;;;;;;5052518;28;20447;-56
2021/05/13 06:13:08;;;;;;;5.37;4.83;;;10.80;99.90;;;;;;5051983;28;20468;-56
2021/05/13 06:15:37;;;;;;;7.27;4.30;;;11.30;99.90;;;;;;5052101;28;20456;-56
2021/05/13 06:18:22;;;;;;;8.70;5.10;;;12.00;99.90;;;;;;5052844;28;20454;-55
2021/05/13 06:20:49;;;;;;;8.70;4.70;;;12.60;99.90;;;;;;5054459;28;20447;-56
2021/05/13 06:23:17;;;;;;;5.73;4.60;;;12.70;99.90;;;;;;5051960;28;20492;-56
2021/05/13 06:25:43;;;;;;;5.13;4.10;;;12.80;99.90;;;;;;5051963;28;20516;-56
2021/05/13 06:28:10;;;;;;;5.30;4.37;;;12.60;99.90;;;;;;5052008;28;20462;-56
2021/05/13 06:30:38;;;;;;;6.83;4.20;;;12.80;99.90;;;;;;5051773;28;20455;-56
2021/05/13 06:33:05;;;;;;;5.07;3.97;;;13.10;99.90;;;;;;5051843;28;21004;-56
2021/05/13 06:35:34;;;;;;;7.27;4.00;;;13.20;99.90;;;;;;5052041;28;20797;-55
2021/05/13 06:38:01;;;;;;;5.57;4.17;;;13.60;99.90;;;;;;5052005;28;20444;-55
2021/05/13 06:40:27;;;;;;;5.43;4.10;;;13.60;99.90;;;;;;5051457;28;20444;-56
2021/05/13 06:42:54;;;;;;;4.53;3.80;;;14.10;99.90;;;;;;5051430;28;20908;-55
2021/05/13 06:45:20;;;;;;;8.23;4.00;;;14.40;99.90;;;;;;5051543;28;20539;-55
2021/05/13 06:47:48;;;;;;;4.30;3.90;;;15.10;99.90;;;;;;5051814;28;20489;-55
2021/05/13 06:50:15;;;;;;;3.57;3.27;;;16.50;99.90;;;;;;5050684;28;20467;-55
2021/05/13 06:52:42;;;;;;;4.63;3.83;;;17.70;99.90;;;;;;5049667;28;20472;-55
2021/05/13 06:55:09;;;;;;;5.00;3.77;;;17.90;99.90;;;;;;5051487;28;20452;-55
2021/05/13 06:57:35;;;;;;;5.00;3.60;;;18.40;99.90;;;;;;5051624;28;20451;-57
2021/05/13 07:00:03;;;;;;;4.30;3.60;;;19.20;99.90;;;;;;5049815;28;20506;-56
2021/05/13 07:02:32;;;;;;;6.90;3.40;;;19.90;99.90;;;;;;5043342;28;20464;-55
2021/05/13 07:04:59;;;;;;;4.17;3.67;;;20.30;99.90;;;;;;5050913;28;20452;-55
2021/05/13 07:07:26;;;;;;;3.50;3.20;;;20.80;99.90;;;;;;5051642;28;20479;-55
2021/05/13 07:09:52;;;;;;;4.20;3.40;;;20.90;99.90;;;;;;5051272;28;20444;-55
2021/05/13 07:12:19;;;;;;;4.30;3.90;;;20.40;99.90;;;;;;5051260;28;20483;-55
2021/05/13 07:14:45;;;;;;;3.40;3.13;;;20.90;99.90;;;;;;5051099;28;20450;-56
2021/05/13 07:17:12;;;;;;;4.90;3.70;;;21.10;99.90;;;;;;5050748;28;20447;-56
2021/05/13 07:19:38;;;;;;;4.97;3.90;;;20.60;99.90;;;;;;5051312;28;20447;-56
2021/05/13 07:22:06;;;;;;;6.03;4.03;;;18.90;99.90;;;;;;5050969;28;20455;-56
2021/05/13 07:24:32;;;;;;;4.40;4.00;;;17.90;99.90;;;;;;5047003;28;20510;-56
2021/05/13 07:26:58;;;;;;;3.63;3.33;;;18.10;99.90;;;;;;5051402;28;20443;-56
2021/05/13 07:29:25;;;;;;;4.00;3.33;;;17.90;99.90;;;;;;5087233;22;20560;-53
2021/05/13 07:31:51;;;;;;;4.43;3.80;;;18.00;99.90;;;;;;5069714;28;20529;-52
2021/05/13 07:34:18;;;;;;;3.77;3.37;;;18.00;99.90;;;;;;5067487;28;20448;-53
2021/05/13 07:36:44;;;;;;;4.43;3.57;;;18.80;99.90;;;;;;5071160;28;20611;-53
2021/05/13 07:39:12;;;;;;;3.30;3.00;;;19.60;99.90;;;;;;5071339;28;20474;-53
2021/05/13 07:41:39;;;;;;;3.00;2.80;;;20.60;99.90;;;;;;5071356;28;20474;-54
2021/05/13 07:44:06;;;;;;;3.87;3.57;;;21.10;99.90;;;;;;5070480;28;20850;-53
2021/05/13 07:46:37;;;;;;;4.33;3.93;;;20.80;99.90;;;;;;5070721;28;20493;-52
2021/05/13 07:49:04;;;;;;;3.90;3.60;;;19.30;99.90;;;;;;5069812;28;20987;-53
2021/05/13 07:51:30;;;;;;;4.47;3.73;;;18.60;99.90;;;;;;5070692;28;20447;-53
2021/05/13 07:53:57;;;;;;;6.10;4.17;;;18.30;99.90;;;;;;5070664;28;20858;-52
2021/05/13 07:56:24;;;;;;;4.30;3.90;;;17.80;99.90;;;;;;5070993;28;20940;-53
2021/05/13 07:58:51;;;;;;;4.80;3.97;;;17.10;99.90;;;;;;5070682;28;20471;-50
2021/05/13 08:01:17;;;;;;;5.43;4.30;;;16.20;99.90;;;;;;5070946;28;20453;-50
2021/05/13 08:03:44;;;;;;;5.57;4.60;;;16.10;99.90;;;;;;5069903;28;20520;-50
2021/05/13 08:06:11;;;;;;;5.33;4.10;;;16.00;99.90;;;;;;5070453;28;20476;-50
2021/05/13 08:08:38;;;;;;;5.70;4.67;;;16.10;99.90;;;;;;5071055;28;20591;-50
2021/05/13 08:11:04;;;;;;;5.80;4.70;;;16.30;99.90;;;;;;5070646;28;20482;-50
2021/05/13 08:13:32;;;;;;;6.03;5.43;;;16.30;99.90;;;;;;5074288;28;20828;-50
2021/05/13 08:15:58;;;;;;;6.80;4.90;;;15.80;99.90;;;;;;5073948;28;20453;-50
2021/05/13 08:18:25;;;;;;;8.63;4.53;;;15.80;99.90;;;;;;5074601;28;20505;-51
2021/05/13 08:20:52;;;;;;;5.60;4.63;;;16.00;99.90;;;;;;5070142;28;20446;-50
2021/05/13 08:23:18;;;;;;;6.53;4.67;;;16.30;99.90;;;;;;5074096;28;20226;-50
2021/05/13 08:25:44;;;;;;;5.87;4.07;;;16.60;99.90;;;;;;5073537;28;21075;-51
2021/05/13 08:28:11;;;;;;;4.03;3.50;;;16.50;99.90;;;;;;5071295;28;20478;-51
2021/05/13 08:30:38;;;;;;;4.97;4.47;;;16.20;99.90;;;;;;5071885;28;20459;-51
2021/05/13 08:33:05;;;;;;;5.87;4.17;;;16.40;99.90;;;;;;5073442;28;20447;-50
2021/05/13 08:35:32;;;;;;;4.03;3.43;;;17.40;99.90;;;;;;5073011;28;20833;-50
2021/05/13 08:37:59;;;;;;;4.27;3.07;;;18.30;99.90;;;;;;5073476;28;21006;-52
2021/05/13 08:40:25;;;;;;;4.20;3.40;;;19.20;99.90;;;;;;5073962;28;20443;-52
2021/05/13 08:42:52;;;;;;;5.23;4.00;;;20.40;99.90;;;;;;5073792;28;20443;-52
2021/05/13 08:45:18;;;;;;;4.30;3.90;;;21.10;99.90;;;;;;5073123;28;20453;-53
2021/05/13 08:47:46;;;;;;;3.03;2.80;;;21.40;99.90;;;;;;5073697;28;21145;-52
2021/05/13 08:50:13;;;;;;;5.07;3.30;;;21.60;99.90;;;;;;5073510;28;20541;-52
2021/05/13 08:52:40;;;;;;;4.43;4.03;;;21.20;99.90;;;;;;5073316;28;20450;-52
2021/05/13 08:55:08;;;;;;;5.90;3.73;;;20.60;99.90;;;;;;5072901;28;20446;-51
2021/05/13 08:57:34;;;;;;;4.23;3.83;;;20.20;99.90;;;;;;5073223;28;20797;-52
2021/05/13 09:00:01;;;;;;;6.97;4.70;;;20.80;99.90;;;;;;5068925;28;20487;-52
2021/05/13 09:02:30;;;;;;;4.20;3.80;;;21.10;99.90;;;;;;5073162;28;20454;-52
2021/05/13 09:04:59;;;;;;;4.23;3.80;;;21.30;99.90;;;;;;5072066;28;20566;-51
2021/05/13 09:07:28;;;;;;;5.40;4.60;;;21.10;99.90;;;;;;5071332;28;20806;-51
2021/05/13 09:09:56;;;;;;;6.00;5.00;;;20.00;99.90;;;;;;5072536;28;20848;-51
2021/05/13 09:12:24;;;;;;;7.30;4.50;;;18.10;99.90;;;;;;5072700;28;20443;-51
2021/05/13 09:15:03;;;;;;;4.80;4.40;;;17.80;99.90;;;;;;5072239;28;20826;-50
2021/05/13 09:17:30;;;;;;;6.93;5.00;;;17.60;99.90;;;;;;5071419;28;21013;-51
2021/05/13 09:19:59;;;;;;;5.50;4.50;;;17.30;99.90;;;;;;5068381;28;20479;-51
2021/05/13 09:22:27;;;;;;;5.87;4.60;;;17.10;99.90;;;;;;5072498;28;20838;-51
2021/05/13 09:24:57;;;;;;;6.90;5.33;;;16.90;99.90;;;;;;5071476;28;20539;-50
2021/05/13 09:27:30;;;;;;;7.23;4.90;;;16.40;99.90;;;;;;5072132;28;20485;-51
2021/05/13 09:30:06;;;;;;;5.23;4.73;;;15.90;99.90;;;;;;5071527;28;20479;-51
2021/05/13 09:32:33;;;;;;;5.30;4.80;;;15.80;99.90;;;;;;5072512;28;20800;-50
2021/05/13 09:35:06;;;;;;;5.00;4.20;;;15.40;99.90;;;;;;5072270;28;20435;-50
2021/05/13 09:37:37;;;;;;;4.67;4.17;;;15.20;99.90;;;;;;5071274;28;20447;-50
2021/05/13 09:40:05;;;;;;;7.60;4.40;;;14.90;99.90;;;;;;5072243;28;20481;-50
2021/05/13 09:42:31;;;;;;;6.10;4.67;;;15.10;99.90;;;;;;5071648;28;20442;-51
2021/05/13 09:44:58;;;;;;;4.67;3.77;;;15.40;99.90;;;;;;5072132;28;20843;-51
2021/05/13 09:47:26;;;;;;;5.57;4.30;;;15.50;99.90;;;;;;5071910;28;20508;-51
2021/05/13 09:49:59;;;;;;;4.40;3.73;;;15.90;99.90;;;;;;5072060;28;20995;-50
2021/05/13 09:52:50;;;;;;;5.50;4.07;;;16.30;99.90;;;;;;5068352;28;20461;-50
2021/05/13 09:55:21;;;;;;;4.77;3.77;;;16.70;99.90;;;;;;5071868;28;20850;-51
2021/05/13 09:57:56;;;;;;;5.17;3.30;;;16.60;99.90;;;;;;5071422;28;20474;-51
2021/05/13 10:00:48;;;;;;;4.87;3.30;;;17.00;99.90;;;;;;5063186;28;20446;-51
2021/05/13 10:03:17;;;;;;;5.10;3.67;;;17.00;99.90;;;;;;5032927;28;21007;-51
2021/05/13 10:05:47;;;;;;;5.93;3.10;;;16.60;99.90;;;;;;5052411;28;20444;-51
2021/05/13 10:08:15;;;;;;;4.43;3.40;;;16.70;99.90;;;;;;5052429;28;20554;-51
2021/05/13 10:10:43;;;;;;;3.83;3.43;;;17.10;99.90;;;;;;5058227;28;20454;-51
2021/05/13 10:13:12;;;;;;;4.97;4.10;;;17.50;99.90;;;;;;5071916;28;20462;-51
2021/05/13 10:15:40;;;;;;;3.47;3.17;;;17.60;99.90;;;;;;5071262;28;20447;-50
2021/05/13 10:18:15;;;;;;;2.87;2.50;;;17.50;99.90;;;;;;5068754;28;20995;-51
2021/05/13 10:20:43;;;;;;;2.23;2.00;;;17.20;99.90;;;;;;5056257;28;20454;-51
2021/05/13 10:23:14;;;;;;;1.63;1.50;;;16.90;99.90;;;;;;5071765;28;21049;-51
2021/05/13 10:25:41;;;;;;;5.83;2.10;;;16.60;99.90;;;;;;5071117;28;20451;-50
2021/05/13 10:28:12;;;;;;;1.70;1.60;;;16.40;99.90;;;;;;5069943;28;20475;-51
2021/05/13 10:30:39;;;;;;;2.50;1.60;;;16.10;99.90;;;;;;5066910;28;20446;-50
2021/05/13 10:33:15;;;;;;;1.97;1.73;;;15.80;99.90;;;;;;5062744;28;20443;-50
2021/05/13 10:35:57;;;;;;;3.30;1.37;;;15.90;99.90;;;;;;5068352;28;20504;-51
2021/05/13 10:38:41;;;;;;;1.53;1.10;;;15.90;99.90;;;;;;5071400;28;20474;-50
2021/05/13 10:41:33;;;;;;;2.93;1.30;;;16.00;99.90;;;;;;5071736;28;20446;-51
2021/05/13 10:44:37;;;;;;;1.93;1.40;;;15.70;99.90;;;;;;5071477;28;20598;-50
2021/05/13 10:47:05;;;;;;;1.37;1.27;;;15.50;99.90;;;;;;5070694;28;20952;-50
2021/05/13 10:49:44;;;;;;;1.43;1.33;;;15.00;99.90;;;;;;5052287;28;20538;-50
2021/05/13 10:52:31;;;;;;;4.30;1.30;;;14.80;99.90;;;;;;5055088;28;20951;-51
2021/05/13 10:54:58;;;;;;;2.30;1.60;;;14.70;99.90;;;;;;5071187;28;20978;-50
2021/05/13 10:57:25;;;;;;;2.53;1.57;;;14.60;99.90;;;;;;5071493;28;20932;-51
2021/05/13 11:00:26;;;;;;;1.47;1.20;;;14.50;99.90;;;;;;5070940;28;20470;-50
2021/05/13 11:02:53;;;;;;;1.87;1.60;;;14.80;99.90;;;;;;5028084;28;20449;-51
2021/05/13 11:05:43;;;;;;;1.20;1.10;;;14.80;99.90;;;;;;5028323;28;20456;-50
2021/05/13 11:08:27;;;;;;;1.50;1.30;;;14.60;99.90;;;;;;5055124;28;20462;-50
2021/05/13 11:10:57;;;;;;;2.03;1.50;;;14.50;99.90;;;;;;5071446;28;20451;-50
2021/05/13 11:13:38;;;;;;;2.03;1.00;;;14.40;99.90;;;;;;5070478;28;20443;-50
2021/05/13 11:16:04;;;;;;;1.20;1.10;;;14.50;99.90;;;;;;5070945;28;20453;-50
2021/05/13 11:18:32;;;;;;;1.65;1.10;;;14.40;99.90;;;;;;5070171;28;20442;-51
2021/05/13 11:20:59;;;;;;;2.17;1.20;;;14.80;99.90;;;;;;5070838;28;20240;-50
2021/05/13 11:23:28;;;;;;;1.07;1.07;;;15.00;99.90;;;;;;5071223;28;20518;-51
2021/05/13 11:25:58;;;;;;;1.57;1.17;;;15.20;99.90;;;;;;5050896;28;20452;-51
2021/05/13 11:28:30;;;;;;;15.60;2.23;;;15.30;99.90;;;;;;5051341;28;20485;-50
2021/05/13 11:31:12;;;;;;;3.10;1.40;;;15.30;99.90;;;;;;5058153;28;20446;-51
2021/05/13 11:33:40;;;;;;;1.63;1.20;;;15.30;99.90;;;;;;5071131;28;20438;-50
2021/05/13 11:36:08;;;;;;;0.87;0.87;;;15.10;99.90;;;;;;5070172;28;20865;-50
2021/05/13 11:38:36;;;;;;;1.57;1.10;;;15.20;99.90;;;;;;5070637;28;20478;-50
2021/05/13 11:41:04;;;;;;;1.50;1.10;;;15.30;99.90;;;;;;5071054;28;20469;-50
2021/05/13 11:43:32;;;;;;;1.33;1.23;;;15.10;99.90;;;;;;5070040;28;20217;-51
2021/05/13 11:46:00;;;;;;;2.80;1.07;;;15.20;99.90;;;;;;5070816;28;20580;-51
2021/05/13 11:48:32;;;;;;;3.20;1.33;;;15.40;99.90;;;;;;5074687;28;20473;-51
2021/05/13 11:51:01;;;;;;;1.10;1.00;;;15.40;99.90;;;;;;5075252;28;20450;-52
2021/05/13 11:53:29;;;;;;;1.30;0.90;;;15.50;99.90;;;;;;5074484;28;20812;-51
2021/05/13 11:55:56;;;;;;;1.47;0.83;;;15.70;99.90;;;;;;5074434;28;20446;-51
2021/05/13 11:58:45;;;;;;;1.57;1.10;;;15.80;99.90;;;;;;5074865;28;20469;-51
2021/05/13 12:01:23;;;;;;;1.27;1.17;;;16.00;99.90;;;;;;5074549;28;20442;-51
2021/05/13 12:03:50;;;;;;;2.20;1.50;;;16.00;99.90;;;;;;5074831;28;21041;-51
2021/05/13 12:06:17;;;;;;;1.30;1.20;;;16.00;99.90;;;;;;5074491;28;21019;-51
2021/05/13 12:08:43;;;;;;;1.30;1.20;;;16.10;99.90;;;;;;5074500;28;20467;-51
2021/05/13 12:11:18;;;;;;;1.70;1.17;;;16.10;99.90;;;;;;5074737;28;20442;-51
2021/05/13 12:13:47;;;;;;;1.00;1.00;;;16.00;99.90;;;;;;5074718;28;20591;-51
2021/05/13 12:16:14;;;;;;;2.37;1.50;;;16.30;99.90;;;;;;5074311;28;20592;-51
2021/05/13 12:18:43;;;;;;;0.93;0.80;;;16.30;99.90;;;;;;5074694;28;20466;-51
2021/05/13 12:21:12;;;;;;;0.80;0.80;;;16.30;99.90;;;;;;5074749;28;20893;-51
2021/05/13 12:23:40;;;;;;;0.97;0.97;;;16.30;99.90;;;;;;5074597;28;20478;-51
2021/05/13 12:26:08;;;;;;;0.80;0.80;;;16.50;99.90;;;;;;5073610;28;20443;-51
2021/05/13 12:28:36;;;;;;;2.40;0.90;;;16.70;99.90;;;;;;5073955;28;20489;-51
2021/05/13 12:31:03;;;;;;;0.70;0.60;;;16.40;99.90;;;;;;5073506;28;20512;-51
2021/05/13 12:33:34;;;;;;;0.80;0.70;;;16.50;99.90;;;;;;5074488;28;20455;-51
2021/05/13 12:36:03;;;;;;;1.10;0.70;;;16.50;99.90;;;;;;5073120;28;20458;-51
2021/05/13 12:38:29;;;;;;;0.90;0.90;;;16.40;99.90;;;;;;5074028;28;20467;-51
2021/05/13 12:41:10;;;;;;;0.70;0.70;;;16.10;99.90;;;;;;5073779;28;20447;-51
2021/05/13 12:43:36;;;;;;;1.90;0.70;;;15.70;99.90;;;;;;5074082;28;20513;-51
2021/05/13 12:46:17;;;;;;;1.40;1.30;;;15.40;99.90;;;;;;5073521;28;20446;-51
2021/05/13 12:48:44;;;;;;;1.33;1.10;;;14.50;99.90;;;;;;5073767;28;20466;-51
2021/05/13 12:51:15;;;;;;;1.20;1.10;;;13.90;99.90;;;;;;5073935;28;20447;-51
2021/05/13 12:53:50;;;;;;;3.27;1.60;;;13.40;99.90;;;;;;5073738;28;20508;-50
2021/05/13 12:56:38;;;;;;;2.60;0.90;;;13.20;99.90;;;;;;5073401;28;20824;-50
2021/05/13 12:59:07;;;;;;;0.90;0.90;;;13.10;99.90;;;;;;5066935;28;20467;-50